Time,TemperatureF,DewpointF,PressureIn,WindDirection,WindDirectionDegrees,WindSpeedMPH,WindSpeedGustMPH,Humidity,HourlyPrecipIn,Conditions,Clouds,dailyrainin,SoftwareType,DateUTC
2013-03-03 00:00:00,41.0,35.0,29.91,North,9,9.0,11.0,79,0.00,,---,0.00,VWS V14.00,2013-03-03 05:00:00,
2013-03-03 00:05:00,41.0,35.0,29.91,North,4,10.0,11.0,79,0.00,,---,0.00,VWS V14.00,2013-03-03 05:05:00,
2013-03-03 00:10:00,40.9,34.6,29.91,NNE,18,7.0,13.0,78,0.00,,---,0.00,VWS V14.00,2013-03-03 05:10:00,
2013-03-03 00:15:00,40.9,34.9,29.91,North,1,7.0,13.0,79,0.00,,---,0.00,VWS V14.00,2013-03-03 05:15:00,
2013-03-03 00:20:00,40.8,34.8,29.91,North,9,11.0,13.0,79,0.00,,---,0.00,VWS V14.00,2013-03-03 05:20:00,
2013-03-03 00:25:00,40.8,35.1,29.91,North,10,8.0,13.0,80,0.00,,---,0.00,VWS V14.00,2013-03-03 05:25:00,
2013-03-03 00:30:00,40.8,35.4,29.91,North,2,10.0,13.0,81,0.00,,---,0.00,VWS V14.00,2013-03-03 05:30:00,
2013-03-03 00:35:00,40.8,34.8,29.91,North,5,9.0,10.0,79,0.00,,---,0.00,VWS V14.00,2013-03-03 05:35:00,
2013-03-03 00:40:00,40.6,35.2,29.90,North,8,9.0,10.0,81,0.00,,---,0.00,VWS V14.00,2013-03-03 05:40:00,
2013-03-03 00:45:00,40.6,34.9,29.90,North,2,6.0,10.0,80,0.00,,---,0.00,VWS V14.00,2013-03-03 05:45:00,
2013-03-03 00:50:00,40.5,34.8,29.91,North,1,7.0,10.0,80,0.00,,---,0.00,VWS V14.00,2013-03-03 05:50:00,
2013-03-03 00:55:00,40.5,34.8,29.91,NNE,12,8.0,10.0,80,0.00,,---,0.00,VWS V14.00,2013-03-03 05:55:00,
2013-03-03 01:00:00,40.3,34.0,29.90,North,1,8.0,8.0,78,0.00,,---,0.00,VWS V14.00,2013-03-03 06:00:00,
2013-03-03 01:05:00,40.3,34.3,29.91,North,1,6.0,9.0,79,0.00,,---,0.00,VWS V14.00,2013-03-03 06:05:00,
2013-03-03 01:10:00,40.2,34.5,29.91,North,359,7.0,9.0,80,0.00,,---,0.00,VWS V14.00,2013-03-03 06:10:00,
2013-03-03 01:15:00,40.2,34.5,29.90,North,0,6.0,11.0,80,0.00,,---,0.00,VWS V14.00,2013-03-03 06:15:00,
2013-03-03 01:20:00,40.1,34.8,29.90,North,359,8.0,11.0,81,0.00,,---,0.00,VWS V14.00,2013-03-03 06:20:00,
2013-03-03 01:25:00,40.0,34.7,29.91,North,5,7.0,11.0,81,0.00,,---,0.00,VWS V14.00,2013-03-03 06:25:00,
2013-03-03 01:30:00,39.9,34.5,29.91,North,2,8.0,8.0,81,0.00,,---,0.00,VWS V14.00,2013-03-03 06:30:00,
2013-03-03 01:35:00,39.9,34.5,29.91,North,359,7.0,9.0,81,0.00,,---,0.00,VWS V14.00,2013-03-03 06:35:00,
2013-03-03 01:40:00,39.8,34.8,29.91,North,359,7.0,9.0,82,0.00,,---,0.00,VWS V14.00,2013-03-03 06:40:00,
2013-03-03 01:45:00,39.8,34.5,29.91,North,0,6.0,9.0,81,0.00,,---,0.00,VWS V14.00,2013-03-03 06:45:00,
2013-03-03 01:50:00,39.7,34.4,29.91,North,0,4.0,10.0,81,0.00,,---,0.00,VWS V14.00,2013-03-03 06:50:00,
2013-03-03 01:55:00,39.6,34.0,29.91,North,0,5.0,10.0,80,0.00,,---,0.00,VWS V14.00,2013-03-03 06:55:00,
2013-03-03 02:00:00,39.5,33.5,29.91,North,359,7.0,10.0,79,0.00,,---,0.00,VWS V14.00,2013-03-03 07:00:00,
2013-03-03 02:05:00,39.4,33.8,29.91,North,1,6.0,8.0,80,0.00,,---,0.00,VWS V14.00,2013-03-03 07:05:00,
2013-03-03 02:10:00,39.3,33.3,29.91,North,0,5.0,9.0,79,0.00,,---,0.00,VWS V14.00,2013-03-03 07:10:00,
2013-03-03 02:15:00,39.2,32.9,29.91,North,0,5.0,9.0,78,0.00,,---,0.00,VWS V14.00,2013-03-03 07:15:00,
2013-03-03 02:20:00,39.1,32.5,29.91,North,2,7.0,9.0,77,0.00,,---,0.00,VWS V14.00,2013-03-03 07:20:00,
2013-03-03 02:25:00,39.0,32.7,29.90,North,1,6.0,9.0,78,0.00,,---,0.00,VWS V14.00,2013-03-03 07:25:00,
2013-03-03 02:30:00,38.9,32.6,29.91,North,0,6.0,7.0,78,0.00,,---,0.00,VWS V14.00,2013-03-03 07:30:00,
2013-03-03 02:35:00,39.0,33.0,29.91,North,0,7.0,10.0,79,0.00,,---,0.00,VWS V14.00,2013-03-03 07:35:00,
2013-03-03 02:40:00,39.0,33.0,29.90,North,10,7.0,10.0,79,0.00,,---,0.00,VWS V14.00,2013-03-03 07:40:00,
2013-03-03 02:45:00,38.9,32.6,29.90,North,359,5.0,10.0,78,0.00,,---,0.00,VWS V14.00,2013-03-03 07:45:00,
2013-03-03 02:50:00,38.9,32.6,29.90,North,2,5.0,10.0,78,0.00,,---,0.00,VWS V14.00,2013-03-03 07:50:00,
2013-03-03 02:55:00,38.8,32.5,29.90,North,0,4.0,10.0,78,0.00,,---,0.00,VWS V14.00,2013-03-03 07:55:00,
2013-03-03 03:00:00,38.7,32.8,29.90,North,357,6.0,10.0,79,0.00,,---,0.00,VWS V14.00,2013-03-03 08:00:00,
2013-03-03 03:05:00,38.7,32.4,29.90,North,359,4.0,7.0,78,0.00,,---,0.00,VWS V14.00,2013-03-03 08:05:00,
2013-03-03 03:10:00,38.7,32.4,29.90,North,354,4.0,7.0,78,0.00,,---,0.00,VWS V14.00,2013-03-03 08:10:00,
2013-03-03 03:15:00,38.6,32.7,29.89,NNW,340,7.0,7.0,79,0.00,,---,0.00,VWS V14.00,2013-03-03 08:15:00,
2013-03-03 03:20:00,38.5,32.6,29.90,NNW,347,5.0,8.0,79,0.00,,---,0.00,VWS V14.00,2013-03-03 08:20:00,
2013-03-03 03:25:00,38.5,32.6,29.90,NNW,344,7.0,8.0,79,0.00,,---,0.00,VWS V14.00,2013-03-03 08:25:00,
2013-03-03 03:30:00,38.4,32.8,29.90,North,349,6.0,8.0,80,0.00,,---,0.00,VWS V14.00,2013-03-03 08:30:00,
2013-03-03 03:35:00,38.3,32.4,29.90,North,351,8.0,8.0,79,0.00,,---,0.00,VWS V14.00,2013-03-03 08:35:00,
2013-03-03 03:40:00,38.2,32.3,29.90,NNW,336,5.0,8.0,79,0.00,,---,0.00,VWS V14.00,2013-03-03 08:40:00,
2013-03-03 03:45:00,38.0,32.1,29.90,NW,325,5.0,8.0,79,0.00,,---,0.00,VWS V14.00,2013-03-03 08:45:00,
2013-03-03 03:50:00,37.9,32.6,29.90,NNW,333,7.0,8.0,81,0.00,,---,0.00,VWS V14.00,2013-03-03 08:50:00,
2013-03-03 03:55:00,37.7,32.1,29.90,NW,313,8.0,10.0,80,0.00,,---,0.00,VWS V14.00,2013-03-03 08:55:00,
2013-03-03 04:00:00,37.6,32.6,29.90,NW,325,11.0,14.0,82,0.00,,---,0.00,VWS V14.00,2013-03-03 09:00:00,
2013-03-03 04:05:00,37.5,32.2,29.90,NNW,329,12.0,14.0,81,0.00,,---,0.00,VWS V14.00,2013-03-03 09:05:00,
2013-03-03 04:10:00,37.4,31.8,29.90,NNW,327,10.0,14.0,80,0.00,,---,0.00,VWS V14.00,2013-03-03 09:10:00,
2013-03-03 04:15:00,37.2,31.9,29.91,NNW,328,9.0,14.0,81,0.00,,---,0.00,VWS V14.00,2013-03-03 09:15:00,
2013-03-03 04:20:00,37.0,31.4,29.91,NW,324,11.0,14.0,80,0.00,,---,0.00,VWS V14.00,2013-03-03 09:20:00,
2013-03-03 04:25:00,37.0,32.6,29.91,NNW,332,10.0,14.0,84,0.00,,---,0.00,VWS V14.00,2013-03-03 09:25:00,
2013-03-03 04:30:00,36.9,32.5,29.91,NNW,327,9.0,14.0,84,0.00,,---,0.00,VWS V14.00,2013-03-03 09:30:00,
2013-03-03 04:35:00,36.8,32.4,29.91,NNW,335,10.0,14.0,84,0.00,,---,0.00,VWS V14.00,2013-03-03 09:35:00,
2013-03-03 04:40:00,36.6,32.2,29.91,NNW,330,10.0,14.0,84,0.00,,---,0.00,VWS V14.00,2013-03-03 09:40:00,
2013-03-03 04:45:00,36.6,32.5,29.91,NNW,329,10.0,14.0,85,0.00,,---,0.00,VWS V14.00,2013-03-03 09:45:00,
2013-03-03 04:50:00,36.5,32.1,29.91,NNW,336,9.0,14.0,84,0.00,,---,0.00,VWS V14.00,2013-03-03 09:50:00,
2013-03-03 04:55:00,36.3,32.2,29.91,NNW,337,9.0,14.0,85,0.00,,---,0.00,VWS V14.00,2013-03-03 09:55:00,
2013-03-03 05:00:00,36.2,31.8,29.92,NNW,329,10.0,14.0,84,0.00,,---,0.00,VWS V14.00,2013-03-03 10:00:00,
2013-03-03 05:05:00,36.1,31.5,29.92,NNW,332,6.0,11.0,83,0.00,,---,0.00,VWS V14.00,2013-03-03 10:05:00,
2013-03-03 05:10:00,36.0,31.6,29.92,NNW,331,9.0,11.0,84,0.00,,---,0.00,VWS V14.00,2013-03-03 10:10:00,
2013-03-03 05:15:00,35.8,31.5,29.92,NNW,340,11.0,12.0,84,0.00,,---,0.00,VWS V14.00,2013-03-03 10:15:00,
2013-03-03 05:20:00,35.6,31.0,29.92,NNW,328,9.0,12.0,83,0.00,,---,0.00,VWS V14.00,2013-03-03 10:20:00,
2013-03-03 05:25:00,35.6,31.2,29.92,NNW,339,10.0,12.0,84,0.00,,---,0.00,VWS V14.00,2013-03-03 10:25:00,
2013-03-03 05:30:00,35.5,31.5,29.92,NW,326,12.0,12.0,85,0.00,,---,0.00,VWS V14.00,2013-03-03 10:30:00,
2013-03-03 05:35:00,35.5,31.1,29.92,NNW,332,10.0,13.0,84,0.00,,---,0.00,VWS V14.00,2013-03-03 10:35:00,
2013-03-03 05:40:00,35.4,30.8,29.92,NNW,331,10.0,13.0,83,0.00,,---,0.00,VWS V14.00,2013-03-03 10:40:00,
2013-03-03 05:45:00,35.3,30.7,29.92,NNW,338,9.0,13.0,83,0.00,,---,0.00,VWS V14.00,2013-03-03 10:45:00,
2013-03-03 05:50:00,35.3,30.7,29.92,NNW,332,12.0,13.0,83,0.00,,---,0.00,VWS V14.00,2013-03-03 10:50:00,
2013-03-03 05:55:00,35.2,30.6,29.92,NNW,330,8.0,13.0,83,0.00,,---,0.00,VWS V14.00,2013-03-03 10:55:00,
2013-03-03 06:00:00,35.2,30.9,29.92,NNW,337,8.0,13.0,84,0.00,,---,0.00,VWS V14.00,2013-03-03 11:00:00,
2013-03-03 06:05:00,35.1,30.5,29.93,NW,326,10.0,15.0,83,0.00,,---,0.00,VWS V14.00,2013-03-03 11:05:00,
2013-03-03 06:10:00,35.0,30.4,29.93,NW,326,10.0,15.0,83,0.00,,---,0.00,VWS V14.00,2013-03-03 11:10:00,
2013-03-03 06:15:00,34.9,30.3,29.93,NNW,330,9.0,15.0,83,0.00,,---,0.00,VWS V14.00,2013-03-03 11:15:00,
2013-03-03 06:20:00,34.9,30.3,29.93,NNW,327,11.0,15.0,83,0.00,,---,0.00,VWS V14.00,2013-03-03 11:20:00,
2013-03-03 06:25:00,34.8,30.2,29.93,NNW,331,10.0,15.0,83,0.00,,---,0.00,VWS V14.00,2013-03-03 11:25:00,
2013-03-03 06:30:00,34.8,29.9,29.93,NNW,327,9.0,15.0,82,0.00,,---,0.00,VWS V14.00,2013-03-03 11:30:00,
2013-03-03 06:35:00,34.7,30.1,29.93,NNW,328,10.0,13.0,83,0.00,,---,0.00,VWS V14.00,2013-03-03 11:35:00,
2013-03-03 06:40:00,34.7,30.1,29.93,NW,322,9.0,13.0,83,0.00,,---,0.00,VWS V14.00,2013-03-03 11:40:00,
2013-03-03 06:45:00,34.6,30.0,29.93,NNW,332,10.0,13.0,83,0.00,,---,0.00,VWS V14.00,2013-03-03 11:45:00,
2013-03-03 06:50:00,34.6,29.7,29.93,NW,322,10.0,14.0,82,0.00,,---,0.00,VWS V14.00,2013-03-03 11:50:00,
2013-03-03 06:55:00,34.5,29.6,29.93,NW,323,7.0,14.0,82,0.00,,---,0.00,VWS V14.00,2013-03-03 11:55:00,
2013-03-03 07:00:00,34.5,29.6,29.93,NNW,333,10.0,14.0,82,0.00,,---,0.00,VWS V14.00,2013-03-03 12:00:00,
2013-03-03 07:05:00,34.4,29.5,29.93,NNW,340,7.0,11.0,82,0.00,,---,0.00,VWS V14.00,2013-03-03 12:05:00,
2013-03-03 07:10:00,34.4,29.5,29.93,NW,322,8.0,11.0,82,0.00,,---,0.00,VWS V14.00,2013-03-03 12:10:00,
2013-03-03 07:15:00,34.3,29.4,29.93,NNW,332,9.0,13.0,82,0.00,,---,0.00,VWS V14.00,2013-03-03 12:15:00,
2013-03-03 07:20:00,34.3,29.7,29.94,NNW,336,8.0,13.0,83,0.00,,---,0.00,VWS V14.00,2013-03-03 12:20:00,
2013-03-03 07:25:00,34.2,29.3,29.94,NNW,332,9.0,13.0,82,0.00,,---,0.00,VWS V14.00,2013-03-03 12:25:00,
2013-03-03 07:30:00,34.3,29.4,29.93,North,357,7.0,13.0,82,0.00,,---,0.00,VWS V14.00,2013-03-03 12:30:00,
2013-03-03 07:35:00,34.3,29.4,29.94,NNW,340,9.0,12.0,82,0.00,,---,0.00,VWS V14.00,2013-03-03 12:35:00,
2013-03-03 07:40:00,34.4,29.5,29.94,NNW,335,9.0,13.0,82,0.00,,---,0.00,VWS V14.00,2013-03-03 12:40:00,
2013-03-03 07:45:00,34.4,29.8,29.94,NNW,336,10.0,13.0,83,0.00,,---,0.00,VWS V14.00,2013-03-03 12:45:00,
2013-03-03 07:50:00,34.4,29.8,29.94,NNW,347,12.0,13.0,83,0.00,,---,0.00,VWS V14.00,2013-03-03 12:50:00,
2013-03-03 07:55:00,34.5,30.2,29.94,NNW,345,10.0,13.0,84,0.00,,---,0.00,VWS V14.00,2013-03-03 12:55:00,
2013-03-03 08:00:00,34.7,30.1,29.95,North,349,11.0,15.0,83,0.00,,---,0.00,VWS V14.00,2013-03-03 13:00:00,
2013-03-03 08:05:00,34.8,30.8,29.95,NNW,338,11.0,14.0,85,0.00,,---,0.00,VWS V14.00,2013-03-03 13:05:00,
2013-03-03 08:10:00,35.1,31.0,29.95,NNW,343,11.0,14.0,85,0.00,,---,0.00,VWS V14.00,2013-03-03 13:10:00,
2013-03-03 08:15:00,35.3,31.0,29.95,North,349,6.0,14.0,84,0.00,,---,0.00,VWS V14.00,2013-03-03 13:15:00,
2013-03-03 08:20:00,35.5,31.1,29.94,North,0,6.0,14.0,84,0.00,,---,0.00,VWS V14.00,2013-03-03 13:20:00,
2013-03-03 08:25:00,35.6,31.0,29.95,NNW,343,9.0,14.0,83,0.00,,---,0.00,VWS V14.00,2013-03-03 13:25:00,
2013-03-03 08:30:00,35.6,31.0,29.94,North,358,7.0,14.0,83,0.00,,---,0.00,VWS V14.00,2013-03-03 13:30:00,
2013-03-03 08:35:00,35.7,30.8,29.94,North,355,10.0,14.0,82,0.00,,---,0.00,VWS V14.00,2013-03-03 13:35:00,
2013-03-03 08:40:00,35.8,31.5,29.94,NNE,16,13.0,15.0,84,0.00,,---,0.00,VWS V14.00,2013-03-03 13:40:00,
2013-03-03 08:45:00,36.1,31.5,29.94,NNW,341,10.0,15.0,83,0.00,,---,0.00,VWS V14.00,2013-03-03 13:45:00,
2013-03-03 08:50:00,36.4,31.7,29.94,NNW,348,11.0,15.0,83,0.00,,---,0.00,VWS V14.00,2013-03-03 13:50:00,
2013-03-03 08:55:00,36.5,31.8,29.95,NNW,346,7.0,15.0,83,0.00,,---,0.00,VWS V14.00,2013-03-03 13:55:00,
2013-03-03 09:00:00,36.7,31.7,29.95,NNE,15,6.0,15.0,82,0.00,,---,0.00,VWS V14.00,2013-03-03 14:00:00,
2013-03-03 09:05:00,36.8,31.5,29.94,NNE,17,7.0,13.0,81,0.00,,---,0.00,VWS V14.00,2013-03-03 14:05:00,
2013-03-03 09:10:00,37.0,32.0,29.94,North,352,8.0,13.0,82,0.00,,---,0.00,VWS V14.00,2013-03-03 14:10:00,
2013-03-03 09:15:00,37.2,31.9,29.95,North,7,10.0,13.0,81,0.00,,---,0.00,VWS V14.00,2013-03-03 14:15:00,
2013-03-03 09:20:00,37.4,31.5,29.95,North,10,8.0,13.0,79,0.00,,---,0.00,VWS V14.00,2013-03-03 14:20:00,
2013-03-03 09:25:00,37.5,31.0,29.95,NNE,27,8.0,13.0,77,0.00,,---,0.00,VWS V14.00,2013-03-03 14:25:00,
2013-03-03 09:30:00,37.7,31.5,29.94,North,7,7.0,13.0,78,0.00,,---,0.00,VWS V14.00,2013-03-03 14:30:00,
2013-03-03 09:35:00,37.9,31.7,29.94,NNE,14,10.0,12.0,78,0.00,,---,0.00,VWS V14.00,2013-03-03 14:35:00,
2013-03-03 09:40:00,38.0,31.4,29.95,NNE,15,5.0,13.0,77,0.00,,---,0.00,VWS V14.00,2013-03-03 14:40:00,
2013-03-03 09:45:00,38.1,31.2,29.94,North,10,9.0,13.0,76,0.00,,---,0.00,VWS V14.00,2013-03-03 14:45:00,
2013-03-03 09:50:00,38.3,31.4,29.94,NNE,14,9.0,13.0,76,0.00,,---,0.00,VWS V14.00,2013-03-03 14:50:00,
2013-03-03 09:55:00,38.4,30.9,29.94,North,5,2.0,13.0,74,0.00,,---,0.00,VWS V14.00,2013-03-03 14:55:00,
2013-03-03 10:00:00,38.6,31.4,29.94,North,2,7.0,13.0,75,0.00,,---,0.00,VWS V14.00,2013-03-03 15:00:00,
2013-03-03 10:05:00,38.6,30.7,29.94,NE,37,7.0,9.0,73,0.00,,---,0.00,VWS V14.00,2013-03-03 15:05:00,
2013-03-03 10:10:00,38.7,31.1,29.94,NNE,18,5.0,10.0,74,0.00,,---,0.00,VWS V14.00,2013-03-03 15:10:00,
2013-03-03 10:15:00,38.9,31.0,29.94,NNE,31,8.0,10.0,73,0.00,,---,0.00,VWS V14.00,2013-03-03 15:15:00,
2013-03-03 10:20:00,39.0,31.4,29.94,NNW,343,6.0,12.0,74,0.00,,---,0.00,VWS V14.00,2013-03-03 15:20:00,
2013-03-03 10:25:00,39.1,31.2,29.94,North,0,2.0,12.0,73,0.00,,---,0.00,VWS V14.00,2013-03-03 15:25:00,
2013-03-03 10:30:00,39.2,31.3,29.94,North,355,2.0,12.0,73,0.00,,---,0.00,VWS V14.00,2013-03-03 15:30:00,
2013-03-03 10:35:00,39.1,30.9,29.94,North,10,0.0,7.0,72,0.00,,---,0.00,VWS V14.00,2013-03-03 15:35:00,
2013-03-03 10:40:00,39.3,30.7,29.93,North,11,7.0,12.0,71,0.00,,---,0.00,VWS V14.00,2013-03-03 15:40:00,
2013-03-03 10:45:00,39.6,31.0,29.94,North,0,6.0,14.0,71,0.00,,---,0.00,VWS V14.00,2013-03-03 15:45:00,
2013-03-03 10:50:00,39.7,30.4,29.93,NNW,344,1.0,14.0,69,0.00,,---,0.00,VWS V14.00,2013-03-03 15:50:00,
2013-03-03 10:55:00,39.7,30.7,29.93,NW,310,5.0,14.0,70,0.00,,---,0.00,VWS V14.00,2013-03-03 15:55:00,
2013-03-03 11:00:00,39.7,30.7,29.93,NW,306,1.0,14.0,70,0.00,,---,0.00,VWS V14.00,2013-03-03 16:00:00,
2013-03-03 11:05:00,39.8,30.5,29.93,NW,319,13.0,13.0,69,0.00,,---,0.00,VWS V14.00,2013-03-03 16:05:00,
2013-03-03 11:10:00,40.0,30.7,29.93,NW,316,1.0,13.0,69,0.00,,---,0.00,VWS V14.00,2013-03-03 16:10:00,
2013-03-03 11:15:00,40.0,31.0,29.93,NE,41,8.0,13.0,70,0.00,,---,0.00,VWS V14.00,2013-03-03 16:15:00,
2013-03-03 11:20:00,40.3,31.3,29.93,NW,324,10.0,13.0,70,0.00,,---,0.00,VWS V14.00,2013-03-03 16:20:00,
2013-03-03 11:25:00,40.5,31.5,29.93,NNW,333,7.0,13.0,70,0.00,,---,0.00,VWS V14.00,2013-03-03 16:25:00,
2013-03-03 11:30:00,40.5,31.1,29.92,NW,318,3.0,13.0,69,0.00,,---,0.00,VWS V14.00,2013-03-03 16:30:00,
2013-03-03 11:35:00,40.6,32.0,29.92,NW,322,8.0,15.0,71,0.00,,---,0.00,VWS V14.00,2013-03-03 16:35:00,
2013-03-03 11:40:00,40.9,32.2,29.92,NNW,339,9.0,15.0,71,0.00,,---,0.00,VWS V14.00,2013-03-03 16:40:00,
2013-03-03 11:44:00,41.1,31.0,29.92,NNW,348,0.0,15.0,67,0.00,,---,0.00,VWS V14.00,2013-03-03 16:44:00,
2013-03-03 11:49:00,41.2,31.5,29.92,West,278,0.0,15.0,68,0.00,,---,0.00,VWS V14.00,2013-03-03 16:49:00,
2013-03-03 11:54:00,41.3,31.5,29.91,NNW,331,6.0,15.0,68,0.00,,---,0.00,VWS V14.00,2013-03-03 16:54:00,
2013-03-03 11:59:00,41.6,31.8,29.91,North,351,10.0,15.0,68,0.00,,---,0.00,VWS V14.00,2013-03-03 16:59:00,
2013-03-03 12:04:00,41.7,31.9,29.91,North,352,6.0,9.0,68,0.00,,---,0.00,VWS V14.00,2013-03-03 17:04:00,
2013-03-03 12:09:00,41.7,31.2,29.91,North,353,5.0,10.0,66,0.00,,---,0.00,VWS V14.00,2013-03-03 17:09:00,
2013-03-03 12:14:00,41.9,32.1,29.91,NNW,331,9.0,14.0,68,0.00,,---,0.00,VWS V14.00,2013-03-03 17:14:00,
2013-03-03 12:19:00,41.9,31.4,29.91,NW,308,4.0,14.0,66,0.00,,---,0.00,VWS V14.00,2013-03-03 17:19:00,
2013-03-03 12:24:00,42.1,31.6,29.90,West,277,2.0,14.0,66,0.00,,---,0.00,VWS V14.00,2013-03-03 17:24:00,
2013-03-03 12:29:00,42.3,31.8,29.90,NW,321,14.0,15.0,66,0.00,,---,0.00,VWS V14.00,2013-03-03 17:29:00,
2013-03-03 12:34:00,42.4,31.5,29.90,NW,319,0.0,11.0,65,0.00,,---,0.00,VWS V14.00,2013-03-03 17:34:00,
2013-03-03 12:39:00,42.6,32.0,29.90,WNW,293,1.0,11.0,66,0.00,,---,0.00,VWS V14.00,2013-03-03 17:39:00,
2013-03-03 12:44:00,42.9,32.7,29.90,NW,306,10.0,13.0,67,0.00,,---,0.00,VWS V14.00,2013-03-03 17:44:00,
2013-03-03 12:49:00,43.2,32.6,29.89,NW,310,13.0,15.0,66,0.00,,---,0.00,VWS V14.00,2013-03-03 17:49:00,
2013-03-03 12:54:00,43.4,32.0,29.89,NW,317,6.0,15.0,64,0.00,,---,0.00,VWS V14.00,2013-03-03 17:54:00,
2013-03-03 12:59:00,43.7,32.0,29.88,NNW,341,1.0,15.0,63,0.00,,---,0.00,VWS V14.00,2013-03-03 17:59:00,
2013-03-03 13:04:00,43.8,32.0,29.88,NNW,336,6.0,15.0,63,0.00,,---,0.00,VWS V14.00,2013-03-03 18:04:00,
2013-03-03 13:09:00,43.9,30.9,29.88,NNW,344,1.0,15.0,60,0.00,,---,0.00,VWS V14.00,2013-03-03 18:09:00,
2013-03-03 13:14:00,44.0,33.0,29.88,NW,322,9.0,15.0,65,0.00,,---,0.00,VWS V14.00,2013-03-03 18:14:00,
2013-03-03 13:19:00,44.2,31.6,29.88,NNW,330,6.0,15.0,61,0.00,,---,0.00,VWS V14.00,2013-03-03 18:19:00,
2013-03-03 13:24:00,44.2,32.0,29.87,North,357,4.0,15.0,62,0.00,,---,0.00,VWS V14.00,2013-03-03 18:24:00,
2013-03-03 13:29:00,44.2,32.0,29.87,NW,326,12.0,15.0,62,0.00,,---,0.00,VWS V14.00,2013-03-03 18:29:00,
2013-03-03 13:34:00,44.6,32.0,29.87,NNW,347,2.0,13.0,61,0.00,,---,0.00,VWS V14.00,2013-03-03 18:34:00,
2013-03-03 13:39:00,44.9,32.3,29.87,NNW,332,6.0,13.0,61,0.00,,---,0.00,VWS V14.00,2013-03-03 18:39:00,
2013-03-03 13:44:00,45.4,32.8,29.87,WNW,300,12.0,13.0,61,0.00,,---,0.00,VWS V14.00,2013-03-03 18:44:00,
2013-03-03 13:49:00,45.8,33.5,29.86,NNW,338,8.0,14.0,62,0.00,,---,0.00,VWS V14.00,2013-03-03 18:49:00,
2013-03-03 13:54:00,46.0,32.5,29.87,North,0,1.0,14.0,59,0.00,,---,0.00,VWS V14.00,2013-03-03 18:54:00,
2013-03-03 13:59:00,45.7,32.6,29.86,NNW,346,11.0,18.0,60,0.00,,---,0.00,VWS V14.00,2013-03-03 18:59:00,
2013-03-03 14:04:00,45.7,33.8,29.87,NNW,345,11.0,15.0,63,0.00,,---,0.00,VWS V14.00,2013-03-03 19:04:00,
2013-03-03 14:09:00,45.6,32.9,29.87,NNW,333,7.0,15.0,61,0.00,,---,0.00,VWS V14.00,2013-03-03 19:09:00,
2013-03-03 14:14:00,45.8,32.3,29.87,North,349,1.0,15.0,59,0.00,,---,0.00,VWS V14.00,2013-03-03 19:14:00,
2013-03-03 14:19:00,46.2,33.1,29.86,WNW,298,10.0,17.0,60,0.00,,---,0.00,VWS V14.00,2013-03-03 19:19:00,
2013-03-03 14:24:00,46.6,33.0,29.86,NNW,332,12.0,17.0,59,0.00,,---,0.00,VWS V14.00,2013-03-03 19:24:00,
2013-03-03 14:29:00,47.1,33.9,29.86,NW,322,10.0,18.0,60,0.00,,---,0.00,VWS V14.00,2013-03-03 19:29:00,
2013-03-03 14:34:00,47.0,33.0,29.86,WNW,288,1.0,15.0,58,0.00,,---,0.00,VWS V14.00,2013-03-03 19:34:00,
2013-03-03 14:39:00,47.1,32.7,29.86,NNW,331,0.0,15.0,57,0.00,,---,0.00,VWS V14.00,2013-03-03 19:39:00,
2013-03-03 14:44:00,46.8,33.7,29.86,North,0,7.0,19.0,60,0.00,,---,0.00,VWS V14.00,2013-03-03 19:44:00,
2013-03-03 14:49:00,46.3,33.2,29.86,North,359,5.0,19.0,60,0.00,,---,0.00,VWS V14.00,2013-03-03 19:49:00,
2013-03-03 14:54:00,46.1,32.6,29.86,North,6,10.0,19.0,59,0.00,,---,0.00,VWS V14.00,2013-03-03 19:54:00,
2013-03-03 14:59:00,46.1,32.6,29.86,North,1,5.0,19.0,59,0.00,,---,0.00,VWS V14.00,2013-03-03 19:59:00,
2013-03-03 15:05:00,46.4,33.7,29.86,NNW,330,13.0,17.0,61,0.00,,---,0.00,VWS V14.00,2013-03-03 20:05:00,
2013-03-03 15:10:00,46.6,32.6,29.86,WNW,301,11.0,18.0,58,0.00,,---,0.00,VWS V14.00,2013-03-03 20:10:00,
2013-03-03 15:15:00,46.9,34.2,29.86,NNW,334,14.0,18.0,61,0.00,,---,0.00,VWS V14.00,2013-03-03 20:15:00,
2013-03-03 15:20:00,46.9,32.9,29.86,North,1,5.0,18.0,58,0.00,,---,0.00,VWS V14.00,2013-03-03 20:20:00,
2013-03-03 15:25:00,46.7,32.3,29.86,North,4,10.0,18.0,57,0.00,,---,0.00,VWS V14.00,2013-03-03 20:25:00,
2013-03-03 15:30:00,46.6,32.6,29.86,North,355,12.0,18.0,58,0.00,,---,0.00,VWS V14.00,2013-03-03 20:30:00,
2013-03-03 15:35:00,46.8,34.1,29.86,NW,321,15.0,17.0,61,0.00,,---,0.00,VWS V14.00,2013-03-03 20:35:00,
2013-03-03 15:40:00,47.0,33.8,29.86,WNW,295,9.0,17.0,60,0.00,,---,0.00,VWS V14.00,2013-03-03 20:40:00,
2013-03-03 15:45:00,47.1,32.7,29.87,NW,305,9.0,17.0,57,0.00,,---,0.00,VWS V14.00,2013-03-03 20:45:00,
2013-03-03 15:50:00,47.3,32.8,29.87,NW,321,11.0,17.0,57,0.00,,---,0.00,VWS V14.00,2013-03-03 20:50:00,
2013-03-03 15:55:00,47.2,33.2,29.87,North,349,7.0,17.0,58,0.00,,---,0.00,VWS V14.00,2013-03-03 20:55:00,
2013-03-03 16:00:00,46.9,32.5,29.87,North,10,7.0,17.0,57,0.00,,---,0.00,VWS V14.00,2013-03-03 21:00:00,
2013-03-03 16:05:00,46.7,33.6,29.87,NNW,327,10.0,14.0,60,0.00,,---,0.00,VWS V14.00,2013-03-03 21:05:00,
2013-03-03 16:10:00,46.9,32.9,29.87,North,350,8.0,14.0,58,0.00,,---,0.00,VWS V14.00,2013-03-03 21:10:00,
2013-03-03 16:15:00,46.7,32.7,29.87,NNW,343,2.0,14.0,58,0.00,,---,0.00,VWS V14.00,2013-03-03 21:15:00,
2013-03-03 16:20:00,46.7,33.6,29.88,North,350,5.0,14.0,60,0.00,,---,0.00,VWS V14.00,2013-03-03 21:20:00,
2013-03-03 16:25:00,46.7,33.6,29.87,NNW,338,14.0,14.0,60,0.00,,---,0.00,VWS V14.00,2013-03-03 21:25:00,
2013-03-03 16:30:00,46.7,32.7,29.87,NW,324,8.0,15.0,58,0.00,,---,0.00,VWS V14.00,2013-03-03 21:30:00,
2013-03-03 16:35:00,46.7,32.7,29.87,WNW,301,10.0,17.0,58,0.00,,---,0.00,VWS V14.00,2013-03-03 21:35:00,
2013-03-03 16:40:00,46.6,33.5,29.87,NW,322,9.0,17.0,60,0.00,,---,0.00,VWS V14.00,2013-03-03 21:40:00,
2013-03-03 16:45:00,46.6,33.5,29.88,NW,324,13.0,17.0,60,0.00,,---,0.00,VWS V14.00,2013-03-03 21:45:00,
2013-03-03 16:50:00,46.5,33.8,29.88,NW,308,12.0,17.0,61,0.00,,---,0.00,VWS V14.00,2013-03-03 21:50:00,
2013-03-03 16:55:00,46.4,32.4,29.88,NW,305,11.0,17.0,58,0.00,,---,0.00,VWS V14.00,2013-03-03 21:55:00,
2013-03-03 17:00:00,46.2,32.2,29.88,NNW,340,12.0,12.0,58,0.00,,---,0.00,VWS V14.00,2013-03-03 22:00:00,
2013-03-03 17:05:00,46.1,32.2,29.88,NW,319,9.0,17.0,58,0.00,,---,0.00,VWS V14.00,2013-03-03 22:05:00,
2013-03-03 17:10:00,46.0,32.5,29.88,NNW,340,9.0,17.0,59,0.00,,---,0.00,VWS V14.00,2013-03-03 22:10:00,
2013-03-03 17:15:00,45.8,33.1,29.88,NW,313,13.0,17.0,61,0.00,,---,0.00,VWS V14.00,2013-03-03 22:15:00,
2013-03-03 17:20:00,45.7,32.2,29.88,NW,316,12.0,17.0,59,0.00,,---,0.00,VWS V14.00,2013-03-03 22:20:00,
2013-03-03 17:25:00,45.5,32.4,29.89,NW,326,10.0,17.0,60,0.00,,---,0.00,VWS V14.00,2013-03-03 22:25:00,
2013-03-03 17:30:00,45.4,32.8,29.89,NW,326,11.0,11.0,61,0.00,,---,0.00,VWS V14.00,2013-03-03 22:30:00,
2013-03-03 17:35:00,45.2,32.6,29.89,NW,314,12.0,14.0,61,0.00,,---,0.00,VWS V14.00,2013-03-03 22:35:00,
2013-03-03 17:40:00,45.0,32.4,29.90,NNW,338,10.0,15.0,61,0.00,,---,0.00,VWS V14.00,2013-03-03 22:40:00,
2013-03-03 17:45:00,44.8,31.8,29.90,NNW,331,10.0,15.0,60,0.00,,---,0.00,VWS V14.00,2013-03-03 22:45:00,
2013-03-03 17:50:00,44.6,32.0,29.90,NNW,334,9.0,15.0,61,0.00,,---,0.00,VWS V14.00,2013-03-03 22:50:00,
2013-03-03 17:55:00,44.5,31.9,29.90,NNW,336,9.0,15.0,61,0.00,,---,0.00,VWS V14.00,2013-03-03 22:55:00,
2013-03-03 18:00:00,44.3,32.1,29.91,NW,326,9.0,10.0,62,0.00,,---,0.00,VWS V14.00,2013-03-03 23:00:00,
2013-03-03 18:05:00,44.1,31.9,29.91,NNW,332,10.0,10.0,62,0.00,,---,0.00,VWS V14.00,2013-03-03 23:05:00,
2013-03-03 18:10:00,43.9,31.7,29.91,NNW,330,7.0,10.0,62,0.00,,---,0.00,VWS V14.00,2013-03-03 23:10:00,
2013-03-03 18:15:00,43.8,31.6,29.91,NNW,343,6.0,10.0,62,0.00,,---,0.00,VWS V14.00,2013-03-03 23:15:00,
2013-03-03 18:20:00,43.6,31.9,29.91,NNW,331,3.0,10.0,63,0.00,,---,0.00,VWS V14.00,2013-03-03 23:20:00,
2013-03-03 18:25:00,43.5,31.8,29.92,NNW,335,6.0,10.0,63,0.00,,---,0.00,VWS V14.00,2013-03-03 23:25:00,
2013-03-03 18:30:00,43.3,31.6,29.92,NNW,335,3.0,3.0,63,0.00,,---,0.00,VWS V14.00,2013-03-03 23:30:00,
2013-03-03 18:35:00,43.1,31.4,29.92,NNW,338,6.0,8.0,63,0.00,,---,0.00,VWS V14.00,2013-03-03 23:35:00,
2013-03-03 18:40:00,43.0,31.7,29.92,NNW,332,6.0,8.0,64,0.00,,---,0.00,VWS V14.00,2013-03-03 23:40:00,
2013-03-03 18:45:00,42.9,31.6,29.92,NNW,331,7.0,8.0,64,0.00,,---,0.00,VWS V14.00,2013-03-03 23:45:00,
2013-03-03 18:50:00,42.8,31.5,29.93,NNW,330,5.0,8.0,64,0.00,,---,0.00,VWS V14.00,2013-03-03 23:50:00,
2013-03-03 18:55:00,42.6,30.5,29.93,NNW,329,6.0,8.0,62,0.00,,---,0.00,VWS V14.00,2013-03-03 23:55:00,
2013-03-03 19:00:00,42.5,32.0,29.93,NNW,337,5.0,8.0,66,0.00,,---,0.00,VWS V14.00,2013-03-04 00:00:00,
2013-03-03 19:05:00,42.4,31.5,29.93,NNW,331,3.0,7.0,65,0.00,,---,0.00,VWS V14.00,2013-03-04 00:05:00,
2013-03-03 19:10:00,42.3,31.8,29.94,NW,320,5.0,7.0,66,0.00,,---,0.00,VWS V14.00,2013-03-04 00:10:00,
2013-03-03 19:15:00,42.3,31.8,29.94,NNW,328,2.0,7.0,66,0.00,,---,0.00,VWS V14.00,2013-03-04 00:15:00,
2013-03-03 19:20:00,42.2,31.3,29.94,NNW,332,5.0,7.0,65,0.00,,---,0.00,VWS V14.00,2013-03-04 00:20:00,
2013-03-03 19:25:00,42.1,31.6,29.94,NW,324,6.0,8.0,66,0.00,,---,0.00,VWS V14.00,2013-03-04 00:25:00,
2013-03-03 19:30:00,42.0,31.1,29.94,NW,322,7.0,8.0,65,0.00,,---,0.00,VWS V14.00,2013-03-04 00:30:00,
2013-03-03 19:35:00,42.0,31.9,29.94,NNW,336,5.0,9.0,67,0.00,,---,0.00,VWS V14.00,2013-03-04 00:35:00,
2013-03-03 19:40:00,41.9,31.8,29.94,NNW,335,3.0,9.0,67,0.00,,---,0.00,VWS V14.00,2013-03-04 00:40:00,
2013-03-03 19:45:00,41.8,31.3,29.94,NNW,335,4.0,9.0,66,0.00,,---,0.00,VWS V14.00,2013-03-04 00:45:00,
2013-03-03 19:50:00,41.7,31.6,29.95,NW,326,3.0,9.0,67,0.00,,---,0.00,VWS V14.00,2013-03-04 00:50:00,
2013-03-03 19:55:00,41.6,31.1,29.94,NW,325,2.0,9.0,66,0.00,,---,0.00,VWS V14.00,2013-03-04 00:55:00,
2013-03-03 20:00:00,41.5,31.4,29.95,NW,321,4.0,9.0,67,0.00,,---,0.00,VWS V14.00,2013-03-04 01:00:00,
2013-03-03 20:05:00,41.5,31.4,29.95,NW,321,2.0,7.0,67,0.00,,---,0.00,VWS V14.00,2013-03-04 01:05:00,
2013-03-03 20:10:00,41.4,31.6,29.95,NW,314,1.0,7.0,68,0.00,,---,0.00,VWS V14.00,2013-03-04 01:10:00,
2013-03-03 20:15:00,41.3,31.5,29.95,NW,313,2.0,7.0,68,0.00,,---,0.00,VWS V14.00,2013-03-04 01:15:00,
2013-03-03 20:20:00,41.2,31.1,29.95,NW,312,5.0,7.0,67,0.00,,---,0.00,VWS V14.00,2013-03-04 01:20:00,
2013-03-03 20:25:00,41.1,31.4,29.95,NW,312,2.0,7.0,68,0.00,,---,0.00,VWS V14.00,2013-03-04 01:25:00,
2013-03-03 20:30:00,41.0,31.3,29.95,NW,312,2.0,2.0,68,0.00,,---,0.00,VWS V14.00,2013-03-04 01:30:00,
2013-03-03 20:35:00,40.9,31.5,29.95,NW,312,2.0,3.0,69,0.00,,---,0.00,VWS V14.00,2013-03-04 01:35:00,
2013-03-03 20:40:00,40.9,31.5,29.95,NW,312,1.0,3.0,69,0.00,,---,0.00,VWS V14.00,2013-03-04 01:40:00,
2013-03-03 20:45:00,40.9,31.5,29.96,NW,312,2.0,3.0,69,0.00,,---,0.00,VWS V14.00,2013-03-04 01:45:00,
2013-03-03 20:50:00,40.7,31.7,29.95,NW,312,3.0,3.0,70,0.00,,---,0.00,VWS V14.00,2013-03-04 01:50:00,
2013-03-03 20:55:00,40.7,31.3,29.96,NW,312,0.0,3.0,69,0.00,,---,0.00,VWS V14.00,2013-03-04 01:55:00,
2013-03-03 21:00:00,40.6,31.2,29.96,NW,312,1.0,1.0,69,0.00,,---,0.00,VWS V14.00,2013-03-04 02:00:00,
2013-03-03 21:05:00,40.6,31.6,29.96,NW,312,0.0,2.0,70,0.00,,---,0.00,VWS V14.00,2013-03-04 02:05:00,
2013-03-03 21:10:00,40.6,31.6,29.96,NW,312,3.0,3.0,70,0.00,,---,0.00,VWS V14.00,2013-03-04 02:10:00,
2013-03-03 21:15:00,40.5,31.9,29.96,NW,312,2.0,3.0,71,0.00,,---,0.00,VWS V14.00,2013-03-04 02:15:00,
2013-03-03 21:20:00,40.6,32.0,29.96,NW,312,3.0,4.0,71,0.00,,---,0.00,VWS V14.00,2013-03-04 02:20:00,
2013-03-03 21:25:00,40.6,32.0,29.96,NW,311,2.0,4.0,71,0.00,,---,0.00,VWS V14.00,2013-03-04 02:25:00,
2013-03-03 21:30:00,40.7,32.4,29.96,NW,306,2.0,2.0,72,0.00,,---,0.00,VWS V14.00,2013-03-04 02:30:00,
2013-03-03 21:35:00,40.7,32.7,29.97,NW,306,3.0,4.0,73,0.00,,---,0.00,VWS V14.00,2013-03-04 02:35:00,
2013-03-03 21:40:00,40.9,32.2,29.97,WNW,298,5.0,8.0,71,0.00,,---,0.00,VWS V14.00,2013-03-04 02:40:00,
2013-03-03 21:45:00,41.0,32.0,29.97,WNW,302,7.0,8.0,70,0.00,,---,0.00,VWS V14.00,2013-03-04 02:45:00,
2013-03-03 21:50:00,41.2,32.5,29.97,WNW,294,6.0,8.0,71,0.00,,---,0.00,VWS V14.00,2013-03-04 02:50:00,
2013-03-03 21:55:00,41.3,32.6,29.97,WNW,294,5.0,10.0,71,0.00,,---,0.00,VWS V14.00,2013-03-04 02:55:00,
2013-03-03 22:00:00,41.3,32.6,29.97,WNW,291,5.0,10.0,71,0.00,,---,0.00,VWS V14.00,2013-03-04 03:00:00,
2013-03-03 22:05:00,41.4,32.7,29.97,WNW,300,7.0,8.0,71,0.00,,---,0.00,VWS V14.00,2013-03-04 03:05:00,
2013-03-03 22:10:00,41.4,33.1,29.97,WNW,300,8.0,11.0,72,0.00,,---,0.00,VWS V14.00,2013-03-04 03:10:00,
2013-03-03 22:15:00,41.4,33.1,29.96,WNW,292,9.0,11.0,72,0.00,,---,0.00,VWS V14.00,2013-03-04 03:15:00,
2013-03-03 22:20:00,41.5,33.5,29.97,WNW,300,9.0,11.0,73,0.00,,---,0.00,VWS V14.00,2013-03-04 03:20:00,
2013-03-03 22:25:00,41.6,33.3,29.97,WNW,297,7.0,11.0,72,0.00,,---,0.00,VWS V14.00,2013-03-04 03:25:00,
2013-03-03 22:30:00,41.6,32.6,29.96,WNW,295,8.0,12.0,70,0.00,,---,0.00,VWS V14.00,2013-03-04 03:30:00,
2013-03-03 22:35:00,41.6,32.6,29.97,WNW,300,8.0,11.0,70,0.00,,---,0.00,VWS V14.00,2013-03-04 03:35:00,
2013-03-03 22:40:00,41.6,32.9,29.97,WNW,300,8.0,11.0,71,0.00,,---,0.00,VWS V14.00,2013-03-04 03:40:00,
2013-03-03 22:45:00,41.6,32.9,29.97,WNW,296,9.0,13.0,71,0.00,,---,0.00,VWS V14.00,2013-03-04 03:45:00,
2013-03-03 22:50:00,41.7,33.3,29.97,WNW,299,9.0,13.0,72,0.00,,---,0.00,VWS V14.00,2013-03-04 03:50:00,
2013-03-03 22:55:00,41.7,32.3,29.97,WNW,303,10.0,14.0,69,0.00,,---,0.00,VWS V14.00,2013-03-04 03:55:00,
2013-03-03 23:00:00,41.6,32.2,29.96,NW,305,10.0,12.0,69,0.00,,---,0.00,VWS V14.00,2013-03-04 04:00:00,
2013-03-03 23:05:00,41.7,32.3,29.97,NW,316,14.0,18.0,69,0.00,,---,0.00,VWS V14.00,2013-03-04 04:05:00,
2013-03-03 23:10:00,41.6,32.6,29.97,NW,313,17.0,18.0,70,0.00,,---,0.00,VWS V14.00,2013-03-04 04:10:00,
2013-03-03 23:15:00,41.4,32.4,29.97,NW,324,14.0,18.0,70,0.00,,---,0.00,VWS V14.00,2013-03-04 04:15:00,
2013-03-03 23:20:00,41.3,32.6,29.98,NW,324,12.0,18.0,71,0.00,,---,0.00,VWS V14.00,2013-03-04 04:20:00,
2013-03-03 23:25:00,40.9,32.6,29.97,NNW,330,13.0,18.0,72,0.00,,---,0.00,VWS V14.00,2013-03-04 04:25:00,
2013-03-03 23:30:00,40.7,32.7,29.98,NNW,337,15.0,15.0,73,0.00,,---,0.00,VWS V14.00,2013-03-04 04:30:00,
2013-03-03 23:35:00,40.5,32.5,29.98,NNW,344,13.0,18.0,73,0.00,,---,0.00,VWS V14.00,2013-03-04 04:35:00,
2013-03-03 23:40:00,40.1,31.5,29.98,NNW,345,12.0,18.0,71,0.00,,---,0.00,VWS V14.00,2013-03-04 04:40:00,
2013-03-03 23:45:00,39.8,31.9,29.97,NNW,343,12.0,18.0,73,0.00,,---,0.00,VWS V14.00,2013-03-04 04:45:00,
2013-03-03 23:50:00,39.5,31.2,29.98,NNW,344,12.0,18.0,72,0.00,,---,0.00,VWS V14.00,2013-03-04 04:50:00,
2013-03-03 23:55:00,39.2,31.6,29.98,NNW,340,10.0,18.0,74,0.00,,---,0.00,VWS V14.00,2013-03-04 04:55:00,